La Crosse Municipal Airport La Crosse US
ICAO: KLSE
IATA: LSE
Category: Medium
Scheduled Services: Yes

Elevation: 655 ft
TransAlt. 18000 ft.

Airport Communications:
ATIS:124.95
MINNEAPOLIS CNTR:128.6
CTAF:118.45
GND:121.8
GREEN BAY RDO:122.2
TWR:118.45
UNICOM:122.95

KLSE Zoom In..

If Map Doesn't Load, Click Here

Runways:

(A) RW 03 length 5199 ft width 150 ft
---- / hdg 34

(B) RW 13 length 6050 ft width 150 ft
---- / hdg 132

(C) RW 18 length 8742 ft width 150 ft
ILS 111.10 / hdg 177

(D) RW 21 length 5199 ft width 150 ft
---- / hdg 214

(E) RW 31 length 6050 ft width 150 ft
---- / hdg 312

(F) RW 36 length 8742 ft width 150 ft
---- / hdg 357

Location; KLSE
Day. 21 / Time. 14.53 Zulu
* Altimeter: 29.91
* Temperature: 16° c. 60.8°f.
* Wind from: 290° Speed 20 kn with Gusts up to 28 kn.
Dewpoint: 11° c.
Visibility: 10 Statute Miles.
Clouds: Overcast 2900 ft.
Conditions: Light Rain.

KLSE 211453Z 29020G28KT 10SM -RA OVC029 16/11 A2991 RMK AO2 PK WND 29034/1405 RAB03 SLP121 P0000 60000 T01560106 51043


Wind From 290°
Speed 20 kn.

 
 
jpsmedia.com for Web Design worldairports.se 2018   terms of use